Time;durP1;ratioP1;P1;durP2;ratioP2;P2;SDS_P1;SDS_P2;PMS_P1;PMS_P2;Temp;Humidity;BMP_temperature;BMP_pressure;BME280_temperature;BME280_humidity;BME280_pressure;Samples;Min_cycle;Max_cycle;Signal;HPM_P1;HPM_P2
2022/09/03 00:01:35;;;;;;;1.80;1.70;;;12.90;99.90;;;;;;5037854;28;20183;-74
2022/09/03 00:04:16;;;;;;;2.03;1.92;;;12.90;99.90;;;;;;5028904;28;20165;-75
2022/09/03 00:07:05;;;;;;;1.77;1.67;;;13.00;99.90;;;;;;5025510;28;20682;-75
2022/09/03 00:09:37;;;;;;;4.25;2.00;;;13.10;99.90;;;;;;5023768;28;20197;-74
2022/09/03 00:12:13;;;;;;;1.83;1.73;;;13.00;99.90;;;;;;5032591;28;20263;-74
2022/09/03 00:15:00;;;;;;;3.30;1.75;;;12.90;99.90;;;;;;5032161;28;20196;-74
2022/09/03 00:17:38;;;;;;;2.00;1.90;;;12.80;99.90;;;;;;5036497;28;20203;-75
2022/09/03 00:20:16;;;;;;;2.42;2.10;;;12.70;99.90;;;;;;5033276;28;20196;-74
2022/09/03 00:22:53;;;;;;;2.15;1.85;;;12.70;99.90;;;;;;5035335;28;20226;-74
2022/09/03 00:25:32;;;;;;;1.88;1.75;;;12.70;99.90;;;;;;5047169;28;20184;-74
2022/09/03 00:28:01;;;;;;;1.80;1.75;;;12.60;99.90;;;;;;5039572;28;20188;-73
2022/09/03 00:30:29;;;;;;;1.77;1.67;;;12.60;99.90;;;;;;5030957;28;20565;-74
2022/09/03 00:33:05;;;;;;;1.85;1.70;;;12.60;99.90;;;;;;5034558;28;20169;-73
2022/09/03 00:35:46;;;;;;;1.80;1.48;;;12.60;99.90;;;;;;5036110;28;20180;-73
2022/09/03 00:38:12;;;;;;;2.05;1.70;;;12.60;99.90;;;;;;5036401;28;20214;-73
2022/09/03 00:41:07;;;;;;;1.40;1.40;;;12.60;99.90;;;;;;5034221;28;20598;-74
2022/09/03 00:43:45;;;;;;;1.70;1.60;;;12.50;99.90;;;;;;5037735;28;20219;-74
2022/09/03 00:46:35;;;;;;;1.73;1.63;;;12.40;99.90;;;;;;5031078;28;20802;-74
2022/09/03 00:49:25;;;;;;;3.08;2.08;;;12.40;99.90;;;;;;5030034;28;20196;-74
2022/09/03 00:52:06;;;;;;;4.50;1.73;;;12.40;99.90;;;;;;5033492;28;20180;-77
2022/09/03 00:54:46;;;;;;;2.50;1.85;;;12.40;99.90;;;;;;5032948;28;20176;-74
2022/09/03 00:57:27;;;;;;;1.70;1.60;;;12.50;99.90;;;;;;5036906;28;20262;-73
2022/09/03 01:00:10;;;;;;;1.83;1.73;;;12.60;99.90;;;;;;5029331;28;20204;-73
2022/09/03 01:02:46;;;;;;;1.65;1.55;;;12.60;99.90;;;;;;5023754;28;20234;-73
2022/09/03 01:05:34;;;;;;;1.73;1.63;;;12.50;99.90;;;;;;5034301;28;20656;-74
2022/09/03 01:08:16;;;;;;;1.67;1.67;;;12.50;99.90;;;;;;5033471;28;20214;-73
2022/09/03 01:11:01;;;;;;;2.67;1.80;;;12.50;99.90;;;;;;5031398;28;20590;-73
2022/09/03 01:13:37;;;;;;;2.25;2.03;;;12.50;99.90;;;;;;5030851;28;20184;-74
2022/09/03 01:16:10;;;;;;;1.88;1.77;;;12.50;99.90;;;;;;5029403;28;20207;-73
2022/09/03 01:18:54;;;;;;;1.50;1.40;;;12.40;99.90;;;;;;5037879;28;20626;-74
2022/09/03 01:21:58;;;;;;;1.92;1.83;;;12.30;99.90;;;;;;5028381;28;20265;-75
2022/09/03 01:24:42;;;;;;;1.90;1.80;;;12.30;99.90;;;;;;5032519;28;20303;-75
2022/09/03 01:27:38;;;;;;;1.67;1.58;;;12.10;99.90;;;;;;5029613;28;20231;-74
2022/09/03 01:30:05;;;;;;;2.90;2.05;;;12.00;99.90;;;;;;5032251;28;20287;-75
2022/09/03 01:32:44;;;;;;;2.58;1.95;;;12.00;99.90;;;;;;5032829;28;20176;-74
2022/09/03 01:35:20;;;;;;;2.03;1.88;;;12.10;99.90;;;;;;5032110;28;20202;-73
2022/09/03 01:37:56;;;;;;;2.10;2.00;;;12.10;99.90;;;;;;5031199;28;20188;-74
2022/09/03 01:42:14;;;;;;;1.70;1.60;;;12.10;99.90;;;;;;5024654;28;20666;-74
2022/09/03 01:44:11;;;;;;;3.13;1.95;;;12.10;99.90;;;;;;5030940;28;20184;-74
2022/09/03 01:46:40;;;;;;;1.83;1.73;;;12.10;99.90;;;;;;5030557;28;20184;-74
2022/09/03 01:49:49;;;;;;;2.17;1.73;;;12.10;99.90;;;;;;5036604;28;20189;-73
2022/09/03 01:52:25;;;;;;;2.10;2.00;;;12.00;99.90;;;;;;5023155;28;20181;-74
2022/09/03 01:55:04;;;;;;;2.03;1.92;;;12.00;99.90;;;;;;5030002;28;20211;-73
2022/09/03 01:57:50;;;;;;;1.63;1.63;;;11.90;99.90;;;;;;5032126;28;20195;-73
2022/09/03 02:00:19;;;;;;;2.55;2.35;;;11.90;99.90;;;;;;5033411;28;20620;-73
2022/09/03 02:02:47;;;;;;;2.17;2.08;;;11.80;99.90;;;;;;5033883;28;20214;-73
2022/09/03 02:05:25;;;;;;;2.33;2.13;;;11.70;99.90;;;;;;5031472;28;20196;-73
2022/09/03 02:08:01;;;;;;;1.95;1.85;;;11.60;99.90;;;;;;5025917;28;20216;-73
2022/09/03 02:10:50;;;;;;;2.17;2.08;;;11.60;99.90;;;;;;5031699;28;20180;-74
2022/09/03 02:13:25;;;;;;;1.83;1.73;;;11.60;99.90;;;;;;5030562;28;20222;-75
2022/09/03 02:15:55;;;;;;;1.95;1.85;;;11.60;99.90;;;;;;5031073;28;20537;-74
2022/09/03 02:18:35;;;;;;;1.95;1.85;;;11.50;99.90;;;;;;5033970;28;20207;-74
2022/09/03 02:21:02;;;;;;;1.90;1.80;;;11.50;99.90;;;;;;5032530;28;20276;-74
2022/09/03 02:23:28;;;;;;;1.90;1.80;;;11.50;99.90;;;;;;5032699;28;20230;-74
2022/09/03 02:25:59;;;;;;;1.42;1.42;;;11.60;99.90;;;;;;5034207;28;20185;-74
2022/09/03 02:28:27;;;;;;;3.45;2.08;;;11.70;99.90;;;;;;5029137;28;20739;-75
2022/09/03 02:30:53;;;;;;;2.17;1.90;;;11.80;99.90;;;;;;5029276;28;20192;-74
2022/09/03 02:33:19;;;;;;;3.00;2.05;;;11.80;99.90;;;;;;5032060;28;20188;-74
2022/09/03 02:35:46;;;;;;;1.80;1.70;;;11.80;99.90;;;;;;5029216;28;20212;-73
2022/09/03 02:38:18;;;;;;;1.98;1.70;;;11.80;99.90;;;;;;5030719;28;20532;-74
2022/09/03 02:40:44;;;;;;;1.90;1.80;;;11.80;99.90;;;;;;5028094;28;20557;-74
2022/09/03 02:43:23;;;;;;;2.22;1.80;;;11.90;99.90;;;;;;5034372;28;20187;-74
2022/09/03 02:45:55;;;;;;;1.63;1.58;;;11.90;99.90;;;;;;5034344;28;20191;-74
2022/09/03 02:48:23;;;;;;;1.95;1.85;;;12.00;99.90;;;;;;5036613;28;20197;-74
2022/09/03 02:50:49;;;;;;;1.65;1.65;;;12.10;99.90;;;;;;5034119;28;20887;-73
2022/09/03 02:53:15;;;;;;;2.08;1.88;;;12.30;99.90;;;;;;5030827;28;20188;-73
2022/09/03 02:55:41;;;;;;;3.80;1.65;;;12.30;99.90;;;;;;5034111;28;20238;-74
2022/09/03 02:58:07;;;;;;;2.08;1.70;;;12.30;99.90;;;;;;5038523;28;20213;-74
2022/09/03 03:00:34;;;;;;;2.35;1.80;;;12.20;99.90;;;;;;5030994;28;20220;-74
2022/09/03 03:03:01;;;;;;;2.88;2.08;;;12.20;99.90;;;;;;5033241;28;20558;-74
2022/09/03 03:05:42;;;;;;;4.10;2.65;;;12.30;99.90;;;;;;5042857;28;20280;-73
2022/09/03 03:08:08;;;;;;;1.92;1.83;;;12.30;99.90;;;;;;5036970;28;20200;-74
2022/09/03 03:10:34;;;;;;;1.92;1.83;;;12.30;99.90;;;;;;5037554;28;20223;-74
2022/09/03 03:13:00;;;;;;;2.78;1.85;;;12.30;99.90;;;;;;5035772;28;20187;-74
2022/09/03 03:15:27;;;;;;;2.78;1.83;;;12.30;99.90;;;;;;5035360;28;20196;-74
2022/09/03 03:17:56;;;;;;;4.47;1.80;;;12.40;99.90;;;;;;5033440;28;20607;-74
2022/09/03 03:20:21;;;;;;;2.00;1.90;;;12.60;99.90;;;;;;5033614;28;20183;-75
2022/09/03 03:22:47;;;;;;;2.00;1.80;;;12.60;99.90;;;;;;5032656;28;20189;-74
2022/09/03 03:25:13;;;;;;;1.95;1.85;;;12.70;99.90;;;;;;5036754;28;20628;-74
2022/09/03 03:27:41;;;;;;;1.80;1.70;;;12.60;99.90;;;;;;5035068;28;20585;-73
2022/09/03 03:30:09;;;;;;;1.90;1.80;;;12.60;99.90;;;;;;5033879;28;20213;-78
2022/09/03 03:32:35;;;;;;;1.77;1.77;;;12.60;99.90;;;;;;5032359;28;20183;-73
2022/09/03 03:35:01;;;;;;;1.77;1.77;;;12.70;99.90;;;;;;5034986;28;20187;-74
2022/09/03 03:37:27;;;;;;;2.85;1.90;;;12.60;99.90;;;;;;5035305;28;20236;-74
2022/09/03 03:39:53;;;;;;;2.10;2.00;;;12.50;99.90;;;;;;5033418;28;20245;-73
2022/09/03 03:42:18;;;;;;;2.65;2.15;;;12.50;99.90;;;;;;5040239;28;20188;-74
2022/09/03 03:45:03;;;;;;;2.33;1.90;;;12.50;99.90;;;;;;5034144;28;20192;-73
2022/09/03 03:47:32;;;;;;;1.70;1.60;;;12.50;99.90;;;;;;5036364;28;20222;-73
2022/09/03 03:49:58;;;;;;;2.10;2.00;;;12.50;99.90;;;;;;5033724;28;20207;-74
2022/09/03 03:52:25;;;;;;;1.80;1.70;;;12.40;99.90;;;;;;5034944;28;20177;-74
2022/09/03 03:54:51;;;;;;;1.90;1.80;;;12.30;99.90;;;;;;5033927;28;20180;-73
2022/09/03 03:57:18;;;;;;;2.78;2.00;;;12.20;99.90;;;;;;5039597;28;20204;-73
2022/09/03 03:59:44;;;;;;;2.00;1.90;;;12.20;99.90;;;;;;5027031;28;20275;-73
2022/09/03 04:02:10;;;;;;;2.35;2.15;;;12.20;99.90;;;;;;5033547;28;20193;-74
2022/09/03 04:04:36;;;;;;;1.73;1.67;;;12.20;99.90;;;;;;5033957;28;20259;-75
2022/09/03 04:07:02;;;;;;;2.15;2.05;;;12.20;99.90;;;;;;5033498;28;20225;-73
2022/09/03 04:09:28;;;;;;;2.67;2.08;;;12.10;99.90;;;;;;5030278;28;20197;-73
2022/09/03 04:11:56;;;;;;;2.03;1.80;;;12.10;99.90;;;;;;5030068;28;20181;-73
2022/09/03 04:14:23;;;;;;;1.65;1.65;;;12.10;99.90;;;;;;5030662;28;20199;-74
2022/09/03 04:16:49;;;;;;;1.92;1.83;;;12.10;99.90;;;;;;5029391;28;20698;-75
2022/09/03 04:19:15;;;;;;;2.22;2.13;;;12.00;99.90;;;;;;5032389;28;20660;-75
2022/09/03 04:21:42;;;;;;;2.45;2.30;;;12.00;99.90;;;;;;5031555;28;20189;-74
2022/09/03 04:24:08;;;;;;;2.28;2.08;;;12.00;99.90;;;;;;5033051;28;20717;-75
2022/09/03 04:26:34;;;;;;;2.50;2.00;;;12.00;99.90;;;;;;5027832;28;20185;-74
2022/09/03 04:29:04;;;;;;;2.25;2.15;;;12.00;99.90;;;;;;5029149;28;20200;-74
2022/09/03 04:31:30;;;;;;;3.15;2.22;;;12.00;99.90;;;;;;5030952;28;20176;-74
2022/09/03 04:33:56;;;;;;;2.03;1.92;;;11.80;99.90;;;;;;5023463;28;20192;-74
2022/09/03 04:36:24;;;;;;;2.20;2.03;;;11.70;99.90;;;;;;5032074;28;20196;-74
2022/09/03 04:38:53;;;;;;;2.30;2.10;;;11.70;99.90;;;;;;5023832;28;20213;-75
2022/09/03 04:41:26;;;;;;;2.28;2.08;;;11.80;99.90;;;;;;5036677;28;20234;-74
2022/09/03 04:43:53;;;;;;;2.22;2.03;;;11.80;99.90;;;;;;5027684;28;20201;-74
2022/09/03 04:46:20;;;;;;;3.08;2.20;;;11.90;99.90;;;;;;5032487;28;20176;-73
2022/09/03 04:48:51;;;;;;;2.38;2.17;;;11.90;99.90;;;;;;5030248;28;20204;-74
2022/09/03 04:51:22;;;;;;;2.45;2.17;;;12.00;99.90;;;;;;5028493;28;20199;-74
2022/09/03 04:53:56;;;;;;;2.13;2.00;;;12.00;99.90;;;;;;5032738;28;20600;-74
2022/09/03 04:56:24;;;;;;;2.15;2.05;;;12.00;99.90;;;;;;5030466;28;20179;-74
2022/09/03 04:58:58;;;;;;;2.72;2.20;;;12.00;99.90;;;;;;5028332;28;20213;-73
2022/09/03 05:01:26;;;;;;;2.47;1.95;;;12.00;99.90;;;;;;5024966;28;20229;-74
2022/09/03 05:03:52;;;;;;;2.50;2.30;;;12.10;99.90;;;;;;5029014;28;20291;-74
2022/09/03 05:06:18;;;;;;;2.28;2.10;;;12.20;99.90;;;;;;5028775;28;20597;-74
2022/09/03 05:08:48;;;;;;;2.88;2.30;;;12.20;99.90;;;;;;5030523;28;20671;-74
2022/09/03 05:11:14;;;;;;;2.97;2.30;;;12.30;99.90;;;;;;5031243;28;20663;-74
2022/09/03 05:13:40;;;;;;;2.10;2.00;;;12.50;99.90;;;;;;5029168;28;20200;-74
2022/09/03 05:16:08;;;;;;;1.90;1.85;;;12.50;99.90;;;;;;5030460;28;20180;-75
2022/09/03 05:18:34;;;;;;;2.10;2.00;;;12.60;99.90;;;;;;5024676;28;20213;-75
2022/09/03 05:21:06;;;;;;;2.53;2.35;;;12.70;99.90;;;;;;5033136;28;20721;-74
2022/09/03 05:23:35;;;;;;;2.53;2.35;;;12.80;99.90;;;;;;5025858;28;20260;-74
2022/09/03 05:26:03;;;;;;;4.97;1.85;;;12.90;99.90;;;;;;5025258;28;20680;-74
2022/09/03 05:28:30;;;;;;;2.50;2.30;;;13.10;99.90;;;;;;5027544;28;20200;-74
2022/09/03 05:31:00;;;;;;;3.28;2.08;;;13.30;99.90;;;;;;5026150;28;20181;-75
2022/09/03 05:33:26;;;;;;;2.20;1.85;;;13.60;99.90;;;;;;5026123;28;20243;-74
2022/09/03 05:36:00;;;;;;;1.83;1.73;;;13.80;99.90;;;;;;5030582;28;20255;-75
2022/09/03 05:38:26;;;;;;;3.00;1.80;;;14.00;99.90;;;;;;5029187;28;20220;-74
2022/09/03 05:40:51;;;;;;;1.55;1.42;;;14.20;99.90;;;;;;5032082;28;20176;-74
2022/09/03 05:43:17;;;;;;;2.15;1.67;;;14.40;99.90;;;;;;5025155;28;20276;-75
2022/09/03 05:45:42;;;;;;;1.65;1.58;;;14.50;99.90;;;;;;5024111;28;20187;-75
2022/09/03 05:48:08;;;;;;;1.77;1.65;;;14.30;99.90;;;;;;5027775;28;20250;-76
2022/09/03 05:50:34;;;;;;;2.28;1.60;;;14.10;99.90;;;;;;5026042;28;20200;-75
2022/09/03 05:52:59;;;;;;;2.35;1.85;;;13.90;99.90;;;;;;5030453;28;20195;-76
2022/09/03 05:55:27;;;;;;;2.00;1.73;;;13.90;99.90;;;;;;5024422;28;20194;-75
2022/09/03 05:57:53;;;;;;;2.15;1.98;;;13.80;99.90;;;;;;5027832;28;20706;-76
2022/09/03 06:00:19;;;;;;;1.98;1.70;;;13.80;99.90;;;;;;5021210;28;20230;-74
2022/09/03 06:02:51;;;;;;;2.10;1.90;;;13.80;99.90;;;;;;5021146;28;20180;-74
2022/09/03 06:05:18;;;;;;;1.63;1.52;;;13.80;99.90;;;;;;5023181;28;20694;-74
2022/09/03 06:07:47;;;;;;;2.38;1.83;;;13.90;99.90;;;;;;5022411;28;20544;-76
2022/09/03 06:10:15;;;;;;;3.63;1.90;;;14.10;99.90;;;;;;5022528;28;21665;-76
2022/09/03 06:12:41;;;;;;;3.58;1.90;;;14.30;99.90;;;;;;5027813;28;20199;-75
2022/09/03 06:15:08;;;;;;;2.55;1.75;;;14.40;99.90;;;;;;5026738;28;20568;-75
2022/09/03 06:17:33;;;;;;;1.65;1.55;;;14.50;99.90;;;;;;5026415;28;20200;-75
2022/09/03 06:19:59;;;;;;;2.10;1.67;;;14.60;99.90;;;;;;5032147;28;20258;-74
2022/09/03 06:22:27;;;;;;;2.03;1.88;;;14.50;99.90;;;;;;5031939;28;20184;-73
2022/09/03 06:24:53;;;;;;;2.00;1.90;;;14.40;99.90;;;;;;5035878;28;20173;-74
2022/09/03 06:27:20;;;;;;;1.77;1.67;;;14.40;99.90;;;;;;5031492;28;20546;-73
2022/09/03 06:29:45;;;;;;;1.85;1.58;;;14.30;99.90;;;;;;5028953;28;20271;-75
2022/09/03 06:32:11;;;;;;;1.67;1.58;;;14.20;99.90;;;;;;5024935;28;20284;-74
2022/09/03 06:34:36;;;;;;;1.90;1.80;;;14.20;99.90;;;;;;5031831;28;20189;-75
2022/09/03 06:37:02;;;;;;;1.63;1.60;;;14.30;99.90;;;;;;5031041;28;20550;-74
2022/09/03 06:39:28;;;;;;;1.88;1.77;;;14.50;99.90;;;;;;5030587;28;20201;-74
2022/09/03 06:41:53;;;;;;;1.88;1.77;;;14.70;99.90;;;;;;5029862;28;20219;-75
2022/09/03 06:44:19;;;;;;;1.90;1.77;;;14.90;99.90;;;;;;5032454;28;20196;-75
2022/09/03 06:46:47;;;;;;;1.77;1.67;;;15.00;99.90;;;;;;5029581;28;20176;-75
2022/09/03 06:49:13;;;;;;;3.53;1.67;;;15.20;99.90;;;;;;5029634;28;20249;-75
2022/09/03 06:51:39;;;;;;;2.28;1.55;;;15.50;99.90;;;;;;5031206;28;20219;-75
2022/09/03 06:54:10;;;;;;;1.83;1.73;;;15.70;99.90;;;;;;5026187;28;20180;-76
2022/09/03 06:56:38;;;;;;;2.22;2.10;;;15.80;99.90;;;;;;5027093;28;20188;-75
2022/09/03 06:59:06;;;;;;;1.58;1.48;;;15.80;99.90;;;;;;5034096;28;20796;-76
2022/09/03 07:01:33;;;;;;;3.45;1.83;;;15.80;99.90;;;;;;5021313;28;20661;-76
2022/09/03 07:04:04;;;;;;;4.03;1.67;;;15.90;99.90;;;;;;5030498;28;20180;-76
2022/09/03 07:06:38;;;;;;;1.50;1.50;;;15.90;99.90;;;;;;5028257;28;20271;-75
2022/09/03 07:09:06;;;;;;;3.05;1.58;;;16.00;99.90;;;;;;5030615;28;20286;-80
2022/09/03 07:11:32;;;;;;;2.42;1.42;;;16.20;99.90;;;;;;5041934;28;20226;-76
2022/09/03 07:13:59;;;;;;;1.60;1.50;;;16.20;99.90;;;;;;5040830;28;20196;-77
2022/09/03 07:16:30;;;;;;;3.28;1.50;;;16.30;99.90;;;;;;5026421;28;20652;-77
2022/09/03 07:18:56;;;;;;;2.10;1.50;;;16.50;99.90;;;;;;5032477;28;20242;-78
2022/09/03 07:21:26;;;;;;;1.42;1.33;;;16.50;99.90;;;;;;5034897;28;20646;-75
2022/09/03 07:23:53;;;;;;;1.90;1.42;;;16.70;99.90;;;;;;5034078;28;20185;-76
2022/09/03 07:26:31;;;;;;;1.58;1.48;;;16.80;99.90;;;;;;5032488;28;20559;-76
2022/09/03 07:28:59;;;;;;;2.55;1.73;;;17.00;99.90;;;;;;5030020;28;20277;-76
2022/09/03 07:31:27;;;;;;;4.97;1.73;;;17.10;99.90;;;;;;5034754;28;20181;-76
2022/09/03 07:34:04;;;;;;;2.00;1.60;;;17.20;99.90;;;;;;5037408;28;21288;-75
2022/09/03 07:36:37;;;;;;;1.80;1.70;;;17.40;99.90;;;;;;5029846;28;20186;-75
2022/09/03 07:39:03;;;;;;;1.58;1.48;;;17.50;99.90;;;;;;5029775;28;20212;-76
2022/09/03 07:41:32;;;;;;;1.70;1.60;;;17.60;99.90;;;;;;5028528;28;20188;-80
2022/09/03 07:44:01;;;;;;;1.88;1.67;;;17.70;99.90;;;;;;5032713;28;20334;-75
2022/09/03 07:46:26;;;;;;;2.50;1.70;;;17.70;99.90;;;;;;5033070;28;20202;-75
2022/09/03 07:48:54;;;;;;;2.10;1.70;;;17.80;99.90;;;;;;5028831;28;20201;-74
2022/09/03 07:51:25;;;;;;;2.03;1.70;;;17.90;99.90;;;;;;5034360;28;20180;-75
2022/09/03 07:53:53;;;;;;;1.80;1.70;;;18.00;99.90;;;;;;5029585;28;20200;-75
2022/09/03 07:56:19;;;;;;;1.52;1.35;;;18.10;99.90;;;;;;5031418;28;20184;-75
2022/09/03 07:58:46;;;;;;;2.20;1.50;;;18.20;99.90;;;;;;5028336;28;20224;-74
2022/09/03 08:01:15;;;;;;;1.40;1.40;;;18.40;99.90;;;;;;5032331;28;20176;-73
2022/09/03 08:03:45;;;;;;;1.17;1.17;;;18.80;99.90;;;;;;5031957;28;20184;-74
2022/09/03 08:06:12;;;;;;;2.22;1.60;;;19.10;99.90;;;;;;5032678;28;20517;-74
2022/09/03 08:08:39;;;;;;;1.60;1.50;;;19.40;99.90;;;;;;5028722;28;20287;-73
2022/09/03 08:11:09;;;;;;;1.15;1.10;;;19.70;99.90;;;;;;5028251;28;20190;-74
2022/09/03 08:13:39;;;;;;;1.25;1.15;;;20.20;99.90;;;;;;5032528;28;20659;-74
2022/09/03 08:16:06;;;;;;;1.42;1.33;;;20.90;99.90;;;;;;5027767;28;20181;-73
2022/09/03 08:18:36;;;;;;;1.55;1.45;;;21.70;96.90;;;;;;5031899;28;20239;-74
2022/09/03 08:21:06;;;;;;;1.50;1.40;;;22.20;93.70;;;;;;5031038;28;20191;-76
2022/09/03 08:23:33;;;;;;;1.50;1.40;;;22.80;92.50;;;;;;5026767;28;20193;-73
2022/09/03 08:26:00;;;;;;;1.58;1.48;;;23.30;90.50;;;;;;5034538;28;20172;-73
2022/09/03 08:28:25;;;;;;;2.20;1.20;;;23.60;88.20;;;;;;5028913;28;20200;-73
2022/09/03 08:30:51;;;;;;;1.65;1.50;;;23.80;82.70;;;;;;5031897;28;20563;-74
2022/09/03 08:33:35;;;;;;;1.50;1.40;;;23.80;85.10;;;;;;5032216;28;20603;-75
2022/09/03 08:36:05;;;;;;;1.40;1.30;;;23.80;83.30;;;;;;5032097;28;20191;-75
2022/09/03 08:38:32;;;;;;;1.48;1.30;;;23.60;84.10;;;;;;5033022;28;20219;-75
2022/09/03 08:41:12;;;;;;;4.30;1.60;;;23.50;83.30;;;;;;5030835;28;20179;-75
2022/09/03 08:43:59;;;;;;;3.13;1.35;;;23.50;83.60;;;;;;5028360;28;20173;-76
2022/09/03 08:46:37;;;;;;;1.40;1.30;;;23.20;82.80;;;;;;5028220;28;20478;-75
2022/09/03 08:49:04;;;;;;;1.40;1.30;;;22.60;84.80;;;;;;5017935;28;20208;-77
2022/09/03 08:51:32;;;;;;;1.77;1.42;;;22.20;85.70;;;;;;5037358;28;20238;-77
2022/09/03 08:53:59;;;;;;;2.08;1.42;;;21.80;88.30;;;;;;5033476;28;20186;-77
2022/09/03 08:56:30;;;;;;;1.27;1.27;;;21.40;89.20;;;;;;5031488;28;20203;-79
2022/09/03 08:58:56;;;;;;;2.00;1.60;;;21.40;90.10;;;;;;5026952;28;20215;-78
2022/09/03 09:01:41;;;;;;;1.48;1.40;;;21.60;90.20;;;;;;5035565;28;20534;-78
2022/09/03 09:04:28;;;;;;;1.10;1.10;;;22.00;90.80;;;;;;5027784;28;20196;-77
2022/09/03 09:07:06;;;;;;;3.28;1.38;;;23.10;87.90;;;;;;5034222;28;20180;-76
2022/09/03 09:09:47;;;;;;;3.10;1.88;;;24.20;82.60;;;;;;5027936;28;20200;-77
2022/09/03 09:12:19;;;;;;;2.05;1.70;;;25.80;78.90;;;;;;5034023;28;20168;-76
2022/09/03 09:15:04;;;;;;;1.45;1.35;;;27.40;73.80;;;;;;5032065;28;20279;-75
2022/09/03 09:17:50;;;;;;;1.55;1.45;;;28.00;69.20;;;;;;5031515;28;20204;-77
2022/09/03 09:20:47;;;;;;;1.45;1.30;;;28.50;66.50;;;;;;5028880;28;20273;-76
2022/09/03 09:23:34;;;;;;;1.52;1.42;;;27.90;67.10;;;;;;5028534;28;20181;-76
2022/09/03 09:26:07;;;;;;;1.45;1.30;;;27.60;67.10;;;;;;5031030;28;20288;-76
2022/09/03 09:28:36;;;;;;;1.40;1.30;;;27.60;67.50;;;;;;5024923;28;20208;-75
2022/09/03 09:31:04;;;;;;;2.08;1.63;;;27.20;68.10;;;;;;5026623;28;20177;-77
2022/09/03 09:33:31;;;;;;;3.42;1.92;;;26.30;70.50;;;;;;5030694;28;20643;-76
2022/09/03 09:36:04;;;;;;;2.92;2.58;;;25.40;72.60;;;;;;5032494;28;20203;-76
2022/09/03 09:38:32;;;;;;;1.63;1.50;;;24.30;74.60;;;;;;5023928;28;20204;-76
2022/09/03 09:41:12;;;;;;;1.85;1.42;;;23.70;79.40;;;;;;5028532;28;20537;-76
2022/09/03 09:43:38;;;;;;;2.05;1.90;;;23.20;79.70;;;;;;5033680;28;20180;-76
2022/09/03 09:46:21;;;;;;;1.67;1.58;;;22.80;81.80;;;;;;5035471;28;20176;-77
2022/09/03 09:49:01;;;;;;;1.98;1.45;;;22.50;83.40;;;;;;5023425;28;20679;-77
2022/09/03 09:51:30;;;;;;;1.65;1.55;;;22.20;86.40;;;;;;5033862;28;20393;-77
2022/09/03 09:54:12;;;;;;;1.70;1.60;;;22.20;88.00;;;;;;5026785;28;20180;-77
2022/09/03 09:56:37;;;;;;;1.88;1.70;;;23.10;84.80;;;;;;5031041;28;20179;-77
2022/09/03 09:59:07;;;;;;;2.67;1.65;;;24.50;80.70;;;;;;5029230;28;20609;-77
2022/09/03 10:01:36;;;;;;;2.58;1.60;;;25.60;77.80;;;;;;5023283;28;20243;-77
2022/09/03 10:04:12;;;;;;;1.98;1.48;;;27.30;71.90;;;;;;5029236;28;20179;-77
2022/09/03 10:06:54;;;;;;;4.63;1.83;;;30.00;66.90;;;;;;5031205;28;20666;-77
2022/09/03 10:09:22;;;;;;;2.60;1.65;;;32.10;58.90;;;;;;5022274;28;20287;-75
2022/09/03 10:12:06;;;;;;;2.17;1.30;;;33.90;53.70;;;;;;5028095;28;20184;-74
2022/09/03 10:14:49;;;;;;;1.83;1.73;;;34.60;51.80;;;;;;5021534;28;20206;-74
2022/09/03 10:17:33;;;;;;;2.25;1.63;;;35.60;50.40;;;;;;5030435;28;20256;-74
2022/09/03 10:20:46;;;;;;;1.70;1.60;;;36.20;48.40;;;;;;5037373;28;20199;-75
2022/09/03 10:23:28;;;;;;;1.77;1.52;;;37.20;46.30;;;;;;5028284;28;20175;-75
2022/09/03 10:25:54;;;;;;;1.48;1.38;;;37.80;45.10;;;;;;5032206;28;20181;-71
2022/09/03 10:28:28;;;;;;;3.97;1.35;;;38.30;44.50;;;;;;5027745;28;20722;-71
2022/09/03 10:30:59;;;;;;;1.42;1.38;;;38.80;43.30;;;;;;5032469;28;20185;-72
2022/09/03 10:33:33;;;;;;;1.60;1.48;;;39.30;42.50;;;;;;5034851;28;20259;-72
2022/09/03 10:36:25;;;;;;;2.78;1.33;;;39.90;41.70;;;;;;5031707;28;20186;-70
2022/09/03 10:39:17;;;;;;;1.30;1.30;;;40.00;40.90;;;;;;5028960;28;20242;-70
2022/09/03 10:41:58;;;;;;;1.40;1.30;;;39.90;40.30;;;;;;5039210;28;20261;-70
2022/09/03 10:44:46;;;;;;;1.33;1.10;;;39.40;40.80;;;;;;5032938;28;20183;-71
2022/09/03 10:47:21;;;;;;;1.52;1.42;;;38.30;41.70;;;;;;5030465;28;20171;-70
2022/09/03 10:49:49;;;;;;;1.52;1.42;;;38.40;41.00;;;;;;5031036;28;20191;-71
2022/09/03 10:52:50;;;;;;;1.30;1.20;;;38.20;41.70;;;;;;5028654;28;20180;-70
2022/09/03 10:55:30;;;;;;;0.98;0.98;;;37.60;42.60;;;;;;5027462;28;20180;-71
2022/09/03 10:58:23;;;;;;;1.50;1.40;;;37.00;42.80;;;;;;5027377;28;20207;-71
2022/09/03 11:00:57;;;;;;;1.77;1.13;;;36.80;42.40;;;;;;5028317;28;20246;-71
2022/09/03 11:03:34;;;;;;;1.52;1.25;;;36.40;42.90;;;;;;5030593;28;20698;-71
2022/09/03 11:06:18;;;;;;;3.63;1.40;;;36.60;43.30;;;;;;5027890;28;20183;-71
2022/09/03 11:08:54;;;;;;;1.42;1.30;;;36.60;44.60;;;;;;5030260;28;20203;-72
2022/09/03 11:11:41;;;;;;;1.65;1.17;;;37.10;43.30;;;;;;5030144;28;20233;-72
2022/09/03 11:14:08;;;;;;;1.27;1.17;;;39.10;40.70;;;;;;5046418;28;20610;-75
2022/09/03 11:16:43;;;;;;;1.55;1.30;;;39.30;40.20;;;;;;5031988;28;20258;-71
2022/09/03 11:19:15;;;;;;;1.40;1.30;;;39.40;40.70;;;;;;5032530;28;20233;-69
2022/09/03 11:21:42;;;;;;;0.95;0.95;;;38.50;40.90;;;;;;5026833;28;20172;-71
2022/09/03 11:24:18;;;;;;;1.23;1.13;;;38.70;41.60;;;;;;5035389;28;20227;-72
2022/09/03 11:26:50;;;;;;;1.60;1.50;;;38.40;41.90;;;;;;5034552;28;20654;-72
2022/09/03 11:29:24;;;;;;;1.52;1.27;;;38.30;40.90;;;;;;5035718;28;20211;-72
2022/09/03 11:32:00;;;;;;;1.13;1.10;;;38.00;40.90;;;;;;5029249;28;20187;-73
2022/09/03 11:34:43;;;;;;;1.20;1.20;;;36.80;42.70;;;;;;5037851;28;20537;-73
2022/09/03 11:37:24;;;;;;;1.60;1.45;;;35.70;45.00;;;;;;5030924;28;20180;-73
2022/09/03 11:39:55;;;;;;;1.45;1.33;;;34.50;45.50;;;;;;5035121;28;20279;-75
2022/09/03 11:42:41;;;;;;;1.48;1.38;;;33.20;48.00;;;;;;5031676;28;20261;-77
2022/09/03 11:45:29;;;;;;;1.20;1.20;;;32.40;49.70;;;;;;5033197;28;20175;-73
2022/09/03 11:47:55;;;;;;;1.20;1.10;;;31.90;50.20;;;;;;5039400;28;20187;-74
2022/09/03 11:50:25;;;;;;;1.75;1.45;;;31.80;50.50;;;;;;5031891;28;20215;-76
2022/09/03 11:53:08;;;;;;;1.60;1.50;;;31.90;50.20;;;;;;5029229;28;20181;-75
2022/09/03 11:55:52;;;;;;;2.17;2.03;;;32.10;50.40;;;;;;5025204;28;20187;-74
2022/09/03 11:58:44;;;;;;;1.98;1.40;;;32.40;49.70;;;;;;5029302;28;20239;-75
2022/09/03 12:01:12;;;;;;;1.73;1.55;;;32.30;50.40;;;;;;5033626;28;20196;-75
2022/09/03 12:03:50;;;;;;;2.30;1.13;;;32.50;51.20;;;;;;5028270;28;20304;-75
2022/09/03 12:06:35;;;;;;;1.30;1.30;;;32.70;49.80;;;;;;5030738;28;20168;-76
2022/09/03 12:09:38;;;;;;;3.20;1.30;;;33.20;48.60;;;;;;5030597;28;20210;-77
2022/09/03 12:12:17;;;;;;;3.85;1.40;;;33.10;48.40;;;;;;5031815;28;20183;-75
2022/09/03 12:15:02;;;;;;;2.55;1.40;;;32.90;49.00;;;;;;5029685;28;20195;-73
2022/09/03 12:17:48;;;;;;;1.40;1.30;;;32.10;50.50;;;;;;5030130;28;20206;-75
2022/09/03 12:20:16;;;;;;;1.33;1.25;;;31.40;51.40;;;;;;5032613;28;20210;-75
2022/09/03 12:22:42;;;;;;;1.20;1.20;;;31.00;52.60;;;;;;5025329;28;20188;-75
2022/09/03 12:25:16;;;;;;;1.40;1.30;;;31.00;52.80;;;;;;5033572;28;20739;-73
2022/09/03 12:27:44;;;;;;;2.80;2.17;;;30.70;52.20;;;;;;5022153;28;20186;-75
2022/09/03 12:30:29;;;;;;;3.28;1.48;;;30.30;53.60;;;;;;5029136;28;20345;-74
2022/09/03 12:33:06;;;;;;;1.10;1.10;;;30.00;54.40;;;;;;5031674;28;20176;-72
2022/09/03 12:35:31;;;;;;;2.03;1.10;;;29.70;53.90;;;;;;5033836;28;20219;-74
2022/09/03 12:37:57;;;;;;;1.33;1.20;;;29.60;54.00;;;;;;5036174;28;20744;-74
2022/09/03 12:40:26;;;;;;;1.95;1.35;;;29.50;56.10;;;;;;5029993;28;20237;-73
2022/09/03 12:42:53;;;;;;;1.27;1.27;;;29.20;55.60;;;;;;5031328;28;20187;-73
2022/09/03 12:45:25;;;;;;;4.78;1.60;;;29.00;56.50;;;;;;5030872;28;20238;-72
2022/09/03 12:47:52;;;;;;;1.58;1.42;;;28.70;57.70;;;;;;5030571;28;20184;-72
2022/09/03 12:50:23;;;;;;;3.15;1.25;;;28.40;58.70;;;;;;5031844;28;20582;-72
2022/09/03 12:52:54;;;;;;;1.60;1.50;;;28.10;58.60;;;;;;5030381;28;20593;-72
2022/09/03 12:55:42;;;;;;;1.80;1.45;;;28.10;59.30;;;;;;5032078;28;20238;-73
2022/09/03 12:58:26;;;;;;;1.88;1.60;;;28.00;59.40;;;;;;5029329;28;20211;-73
2022/09/03 13:01:13;;;;;;;1.95;1.58;;;27.80;59.90;;;;;;5026942;28;20656;-72
2022/09/03 13:03:57;;;;;;;1.65;1.55;;;27.50;60.70;;;;;;5031791;28;20188;-73
2022/09/03 13:06:28;;;;;;;1.77;1.67;;;27.20;62.40;;;;;;5031780;28;20582;-72
2022/09/03 13:08:59;;;;;;;2.20;1.60;;;26.80;65.90;;;;;;5031098;28;20634;-73
2022/09/03 13:11:26;;;;;;;2.47;1.60;;;26.30;67.40;;;;;;5030943;28;20176;-73
2022/09/03 13:14:01;;;;;;;1.65;1.55;;;25.70;76.30;;;;;;5031622;28;20287;-72
2022/09/03 13:16:44;;;;;;;2.17;1.88;;;25.10;84.40;;;;;;5029646;28;20582;-73
2022/09/03 13:19:25;;;;;;;1.60;1.60;;;24.60;81.90;;;;;;5035081;28;20235;-73